Bad Mitterndorf, Austria
Current Conditions -  °F | °C
As of 8:50 PM on Monday 24 Nov 2014 (Local Time) from LOXZ Reporting Station
Broken Clouds Broken Clouds  
Wind Chill: 37°   Ceiling: 800
Heat Index: 37°   Visibility: 8mi
Dew Point: 37°   Wind: 2mph
Humidity: 100%   Direction: NA
Pressure: 30.24"   Gusts: NA
Location:  47.56°N, 13.93°E
Report Text: LOXZ 241950Z VRB02KT 12KM FEW004ST BKN008ST 03/03 Q1024 RMKOVC
Loading
Personal Weather Stations






























Interactive Weather Map New forecast layout! Learn more

10-Day Weather Forecast

Advertisements
Track Severe Weather on mobile